createdAt,value
2023-03-06T00:00:27.350Z,14.90
2023-03-06T00:02:54.139Z,12.18
2023-03-06T00:05:20.965Z,12.35
2023-03-06T00:07:48.015Z,12.48
2023-03-06T00:10:20.024Z,11.70
2023-03-06T00:12:47.131Z,13.15
2023-03-06T00:15:14.239Z,12.48
2023-03-06T00:17:41.510Z,10.40
2023-03-06T00:20:10.756Z,13.35
2023-03-06T00:22:38.134Z,13.18
2023-03-06T00:25:05.759Z,11.70
2023-03-06T00:27:33.057Z,11.75
2023-03-06T00:30:00.773Z,12.77
2023-03-06T00:32:29.404Z,13.68
2023-03-06T00:34:56.431Z,13.43
2023-03-06T00:37:25.026Z,11.77
2023-03-06T00:39:51.994Z,12.60
2023-03-06T00:42:19.305Z,10.55
2023-03-06T00:44:46.301Z,11.40
2023-03-06T00:47:13.562Z,11.43
2023-03-06T00:49:40.191Z,12.98
2023-03-06T00:52:07.079Z,11.38
2023-03-06T00:54:33.637Z,11.48
2023-03-06T00:57:00.258Z,10.25
2023-03-06T00:59:27.855Z,10.43
2023-03-06T01:01:55.247Z,11.68
2023-03-06T01:04:22.016Z,11.35
2023-03-06T01:06:49.335Z,10.75
2023-03-06T01:09:16.279Z,11.57
2023-03-06T01:11:42.964Z,13.15
2023-03-06T01:14:09.947Z,13.50
2023-03-06T01:16:36.702Z,12.55
2023-03-06T01:19:03.760Z,13.13
2023-03-06T01:21:30.617Z,10.07
2023-03-06T01:23:57.256Z,13.25
2023-03-06T01:26:24.420Z,12.30
2023-03-06T01:28:51.306Z,12.32
2023-03-06T01:31:17.975Z,13.50
2023-03-06T01:33:44.615Z,10.48
2023-03-06T01:36:13.030Z,11.70
2023-03-06T01:38:39.863Z,13.23
2023-03-06T01:41:06.965Z,13.65
2023-03-06T01:43:37.170Z,13.77
2023-03-06T01:46:27.255Z,11.70
2023-03-06T01:49:23.365Z,13.35
2023-03-06T01:52:00.141Z,11.73
2023-03-06T01:54:55.473Z,13.85
2023-03-06T01:57:30.974Z,11.45
2023-03-06T02:00:14.212Z,11.50
2023-03-06T02:02:43.890Z,12.48
2023-03-06T02:05:12.078Z,12.88
2023-03-06T02:07:41.936Z,12.50
2023-03-06T02:10:09.613Z,10.15
2023-03-06T02:12:37.681Z,14.05
2023-03-06T02:15:04.853Z,13.48
2023-03-06T02:17:35.193Z,17.50
2023-03-06T02:20:13.414Z,12.23
2023-03-06T02:22:58.276Z,12.98
2023-03-06T02:25:43.370Z,11.93
2023-03-06T02:28:17.524Z,10.50
2023-03-06T02:33:14.601Z,11.70
2023-03-06T02:35:46.848Z,10.38
2023-03-06T02:38:19.076Z,12.48
2023-03-06T02:40:49.754Z,11.23
2023-03-06T02:43:21.311Z,12.32
2023-03-06T02:45:51.199Z,11.18
2023-03-06T02:48:18.896Z,13.65
2023-03-06T02:50:46.511Z,12.68
2023-03-06T02:53:14.907Z,11.32
2023-03-06T02:55:41.879Z,11.95
2023-03-06T02:58:08.913Z,12.45
2023-03-06T03:00:36.367Z,14.00
2023-03-06T03:03:04.157Z,13.02
2023-03-06T03:05:30.875Z,12.75
2023-03-06T03:07:57.777Z,11.85
2023-03-06T03:10:24.661Z,12.43
2023-03-06T03:12:51.526Z,12.95
2023-03-06T03:15:18.706Z,12.55
2023-03-06T03:17:45.470Z,14.88
2023-03-06T03:20:14.467Z,12.27
2023-03-06T03:22:43.323Z,10.70
2023-03-06T03:25:10.164Z,12.63
2023-03-06T03:27:36.772Z,12.02
2023-03-06T03:30:04.513Z,14.10
2023-03-06T03:32:31.281Z,12.25
2023-03-06T03:34:57.928Z,15.70
2023-03-06T03:37:24.557Z,11.90
2023-03-06T03:39:51.167Z,11.55
2023-03-06T03:42:17.874Z,10.68
2023-03-06T03:44:44.588Z,15.32
2023-03-06T03:47:11.191Z,12.40
2023-03-06T03:49:38.718Z,11.18
2023-03-06T03:52:05.496Z,11.98
2023-03-06T03:54:32.320Z,12.57
2023-03-06T03:56:58.913Z,11.10
2023-03-06T03:59:25.728Z,13.93
2023-03-06T04:01:53.019Z,10.43
2023-03-06T04:04:19.681Z,11.25
2023-03-06T04:06:46.272Z,12.43
2023-03-06T04:09:12.937Z,9.55
2023-03-06T04:11:39.631Z,10.30
2023-03-06T04:14:08.519Z,12.75
2023-03-06T04:16:35.450Z,11.40
2023-03-06T04:19:02.098Z,12.35
2023-03-06T04:21:28.787Z,10.35
2023-03-06T04:23:55.498Z,10.38
2023-03-06T04:26:22.134Z,11.38
2023-03-06T04:28:49.064Z,11.73
2023-03-06T04:31:16.177Z,9.55
2023-03-06T04:33:42.823Z,10.43
2023-03-06T04:36:25.020Z,9.95
2023-03-06T04:38:51.676Z,12.05
2023-03-06T04:41:18.415Z,10.75
2023-03-06T04:43:46.351Z,12.95
2023-03-06T04:46:13.046Z,12.68
2023-03-06T04:48:39.664Z,11.50
2023-03-06T04:51:06.615Z,16.83
2023-03-06T04:53:33.303Z,12.63
2023-03-06T04:55:59.943Z,14.00
2023-03-06T04:58:26.552Z,12.57
2023-03-06T05:00:53.409Z,14.63
2023-03-06T05:03:20.164Z,14.10
2023-03-06T05:05:46.826Z,13.23
2023-03-06T05:08:15.428Z,10.13
2023-03-06T05:10:43.558Z,13.68
2023-03-06T05:13:10.667Z,13.10
2023-03-06T05:15:40.159Z,12.43
2023-03-06T05:18:06.891Z,11.63
2023-03-06T05:20:33.983Z,12.63
2023-03-06T05:23:00.670Z,12.05
2023-03-06T05:25:27.269Z,12.73
2023-03-06T05:27:54.190Z,12.30
2023-03-06T05:30:23.136Z,13.30
2023-03-06T05:32:50.804Z,12.48
2023-03-06T05:35:23.007Z,13.82
2023-03-06T05:37:50.074Z,13.07
2023-03-06T05:40:17.864Z,15.18
2023-03-06T05:42:45.004Z,14.90
2023-03-06T05:45:12.189Z,13.82
2023-03-06T05:47:39.013Z,14.45
2023-03-06T05:50:08.466Z,15.13
2023-03-06T05:52:35.066Z,14.13
2023-03-06T05:55:01.988Z,14.55
2023-03-06T05:57:28.923Z,14.57
2023-03-06T05:59:55.594Z,14.80
2023-03-06T06:02:22.710Z,17.55
2023-03-06T06:04:49.613Z,13.73
2023-03-06T06:07:17.019Z,14.57
2023-03-06T06:09:45.662Z,12.75
2023-03-06T06:12:13.203Z,14.20
2023-03-06T06:14:40.028Z,13.50
2023-03-06T06:17:07.467Z,10.65
2023-03-06T06:19:34.311Z,12.90
2023-03-06T06:22:02.781Z,11.10
2023-03-06T06:24:30.670Z,16.48
2023-03-06T06:26:58.421Z,13.60
2023-03-06T06:29:26.089Z,12.68
2023-03-06T06:31:54.050Z,12.63
2023-03-06T06:34:21.574Z,11.55
2023-03-06T06:36:48.362Z,10.45
2023-03-06T06:39:17.017Z,10.48
2023-03-06T06:41:59.819Z,9.60
2023-03-06T06:44:31.256Z,7.93
2023-03-06T06:47:21.904Z,8.63
2023-03-06T06:49:48.262Z,8.43
2023-03-06T06:52:15.359Z,9.18
2023-03-06T06:54:41.918Z,10.63
2023-03-06T06:57:10.611Z,8.93
2023-03-06T06:59:37.457Z,8.88
2023-03-06T07:02:04.268Z,10.65
2023-03-06T07:04:31.294Z,14.98
2023-03-06T07:06:58.605Z,10.02
2023-03-06T07:09:25.495Z,9.90
2023-03-06T07:11:52.360Z,9.20
2023-03-06T07:14:19.073Z,10.00
2023-03-06T07:16:45.744Z,8.82
2023-03-06T07:19:12.400Z,10.35
2023-03-06T07:21:39.186Z,10.60
2023-03-06T07:24:06.349Z,10.00
2023-03-06T07:26:34.759Z,10.73
2023-03-06T07:29:02.490Z,8.30
2023-03-06T07:31:29.249Z,10.65
2023-03-06T07:33:56.204Z,9.30
2023-03-06T07:36:23.827Z,8.10
2023-03-06T07:38:50.614Z,9.48
2023-03-06T07:41:21.869Z,6.97
2023-03-06T07:43:50.430Z,8.50
2023-03-06T07:46:17.544Z,8.85
2023-03-06T07:48:44.718Z,9.25
2023-03-06T07:51:20.304Z,9.38
2023-03-06T07:53:48.502Z,9.52
2023-03-06T07:56:15.299Z,10.25
2023-03-06T07:58:44.539Z,10.60
2023-03-06T08:01:14.066Z,10.00
2023-03-06T08:03:41.191Z,10.05
2023-03-06T08:06:17.462Z,9.15
2023-03-06T08:08:46.609Z,7.70
2023-03-06T08:11:15.581Z,10.05
2023-03-06T08:13:42.912Z,11.85
2023-03-06T08:16:10.451Z,10.23
2023-03-06T08:18:39.834Z,8.85
2023-03-06T08:21:18.549Z,9.25
2023-03-06T08:23:45.983Z,8.52
2023-03-06T08:26:15.713Z,9.85
2023-03-06T08:28:43.078Z,10.05
2023-03-06T08:31:19.035Z,10.40
2023-03-06T08:33:45.647Z,10.73
2023-03-06T08:36:12.290Z,11.65
2023-03-06T08:38:39.242Z,10.57
2023-03-06T08:41:06.082Z,8.88
2023-03-06T08:43:33.770Z,8.77
2023-03-06T08:46:00.610Z,8.85
2023-03-06T08:48:27.945Z,9.80
2023-03-06T08:50:54.757Z,12.30
2023-03-06T08:53:28.013Z,10.20
2023-03-06T08:56:04.416Z,9.82
2023-03-06T08:58:31.151Z,8.82
2023-03-06T09:00:58.154Z,7.47
2023-03-06T09:03:25.757Z,7.88
2023-03-06T09:05:52.756Z,8.45
2023-03-06T09:08:19.333Z,8.63
2023-03-06T09:10:48.213Z,9.65
2023-03-06T09:13:15.089Z,9.02
2023-03-06T09:15:41.851Z,8.95
2023-03-06T09:18:08.600Z,7.18
2023-03-06T09:20:35.744Z,8.23
2023-03-06T09:23:02.331Z,7.60
2023-03-06T09:25:29.256Z,9.02
2023-03-06T09:28:10.382Z,7.57
2023-03-06T09:30:40.817Z,9.00
2023-03-06T09:33:08.003Z,10.35
2023-03-06T09:35:34.917Z,8.45
2023-03-06T09:38:01.647Z,9.18
2023-03-06T09:40:49.778Z,9.50
2023-03-06T09:43:25.745Z,6.60
2023-03-06T09:45:52.877Z,6.10
2023-03-06T09:48:28.939Z,5.60
2023-03-06T09:51:03.390Z,6.50
2023-03-06T09:54:01.220Z,7.05
2023-03-06T09:56:32.844Z,6.72
2023-03-06T09:59:17.642Z,7.50
2023-03-06T10:01:56.413Z,9.25
2023-03-06T10:04:42.459Z,7.82
2023-03-06T10:07:18.404Z,7.82
2023-03-06T10:10:01.336Z,8.63
2023-03-06T10:12:34.040Z,8.13
2023-03-06T10:15:22.541Z,8.25
2023-03-06T10:17:49.777Z,6.68
2023-03-06T10:20:23.027Z,7.32
2023-03-06T10:23:24.940Z,7.27
2023-03-06T10:25:57.261Z,9.35
2023-03-06T10:28:52.610Z,8.55
2023-03-06T10:31:23.705Z,6.32
2023-03-06T10:34:19.427Z,7.80
2023-03-06T10:36:46.034Z,7.20
2023-03-06T10:39:19.884Z,6.80
2023-03-06T10:41:47.996Z,6.90
2023-03-06T10:44:14.585Z,8.80
2023-03-06T10:46:44.707Z,5.40
2023-03-06T10:49:14.404Z,5.93
2023-03-06T10:51:57.203Z,5.93
2023-03-06T10:54:24.301Z,5.93
2023-03-06T10:56:50.961Z,6.00
2023-03-06T10:59:19.729Z,5.40
2023-03-06T11:01:51.600Z,4.88
2023-03-06T11:04:26.332Z,6.47
2023-03-06T11:07:07.511Z,6.60
2023-03-06T11:09:34.691Z,6.45
2023-03-06T11:12:36.750Z,6.30
2023-03-06T11:15:17.921Z,5.75
2023-03-06T11:17:58.263Z,5.88
2023-03-06T11:20:52.366Z,6.45
2023-03-06T11:23:25.522Z,5.75
2023-03-06T11:26:08.473Z,6.20
2023-03-06T11:28:42.386Z,6.20
2023-03-06T11:31:31.741Z,6.07
2023-03-06T11:34:11.152Z,6.50
2023-03-06T11:36:44.581Z,6.15
2023-03-06T11:39:28.310Z,6.30
2023-03-06T11:42:10.952Z,7.10
2023-03-06T11:44:44.570Z,8.30
2023-03-06T11:47:18.327Z,6.53
2023-03-06T11:49:54.011Z,8.77
2023-03-06T11:52:40.820Z,6.30
2023-03-06T11:55:15.552Z,5.78
2023-03-06T11:57:53.170Z,6.05
2023-03-06T12:00:24.068Z,8.20
2023-03-06T12:03:00.976Z,6.07
2023-03-06T12:05:34.089Z,7.00
2023-03-06T12:08:19.990Z,7.95
2023-03-06T12:10:54.837Z,5.55
2023-03-06T12:13:39.847Z,5.50
2023-03-06T12:16:32.340Z,6.32
2023-03-06T12:19:30.459Z,8.32
2023-03-06T12:22:26.403Z,6.07
2023-03-06T12:25:02.372Z,7.05
2023-03-06T12:27:32.067Z,6.68
2023-03-06T12:30:20.725Z,8.43
2023-03-06T12:32:53.486Z,6.40
2023-03-06T12:35:34.984Z,6.75
2023-03-06T12:38:16.984Z,15.73
2023-03-06T12:40:43.906Z,7.57
2023-03-06T12:43:47.496Z,7.78
2023-03-06T12:46:17.582Z,6.50
2023-03-06T12:48:52.973Z,7.43
2023-03-06T12:51:21.460Z,6.68
2023-03-06T12:53:49.980Z,10.30
2023-03-06T12:56:18.808Z,6.65
2023-03-06T12:58:49.490Z,7.57
2023-03-06T13:01:55.521Z,7.78
2023-03-06T13:04:40.552Z,8.40
2023-03-06T13:07:07.299Z,8.35
2023-03-06T13:09:58.641Z,7.47
2023-03-06T13:12:55.972Z,6.93
2023-03-06T13:15:39.219Z,7.82
2023-03-06T13:18:24.128Z,6.80
2023-03-06T13:20:57.639Z,7.90
2023-03-06T13:23:33.421Z,9.80
2023-03-06T13:26:02.842Z,7.43
2023-03-06T13:28:46.378Z,8.25
2023-03-06T13:31:26.567Z,7.20
2023-03-06T13:33:56.486Z,8.15
2023-03-06T13:36:23.152Z,6.47
2023-03-06T13:38:53.029Z,7.03
2023-03-06T13:41:23.493Z,6.50
2023-03-06T13:43:53.452Z,6.90
2023-03-06T13:46:36.230Z,7.68
2023-03-06T13:49:08.652Z,8.85
2023-03-06T13:51:55.635Z,6.97
2023-03-06T13:54:25.149Z,93.50
2023-03-06T13:56:54.400Z,8.55
2023-03-06T13:59:54.442Z,6.97
2023-03-06T14:03:06.797Z,8.52
2023-03-06T14:05:53.990Z,6.13
2023-03-06T14:08:24.860Z,7.93
2023-03-06T14:11:21.162Z,6.85
2023-03-06T14:13:54.570Z,9.32
2023-03-06T14:16:27.893Z,6.67
2023-03-06T14:18:57.582Z,8.20
2023-03-06T14:21:48.473Z,6.07
2023-03-06T14:24:20.300Z,8.15
2023-03-06T14:26:51.919Z,6.78
2023-03-06T14:29:24.707Z,6.50
2023-03-06T14:31:53.703Z,8.82
2023-03-06T14:34:30.377Z,13.50
2023-03-06T14:37:02.233Z,9.68
2023-03-06T14:39:39.532Z,8.02
2023-03-06T14:42:21.359Z,5.70
2023-03-06T14:44:49.882Z,6.85
2023-03-06T14:47:31.601Z,10.60
2023-03-06T14:50:21.554Z,8.00
2023-03-06T14:52:50.345Z,8.63
2023-03-06T14:55:23.664Z,6.88
2023-03-06T14:58:02.515Z,7.00
2023-03-06T15:00:38.168Z,7.93
2023-03-06T15:03:08.737Z,7.85
2023-03-06T15:05:35.729Z,8.60
2023-03-06T15:08:07.077Z,7.45
2023-03-06T15:10:35.887Z,8.23
2023-03-06T15:13:11.503Z,7.72
2023-03-06T15:15:38.410Z,7.05
2023-03-06T15:18:29.210Z,6.75
2023-03-06T15:21:08.272Z,6.88
2023-03-06T15:23:40.746Z,7.90
2023-03-06T15:26:29.445Z,8.50
2023-03-06T15:29:08.278Z,8.02
2023-03-06T15:31:39.058Z,15.68
2023-03-06T15:34:11.483Z,11.18
2023-03-06T15:36:40.476Z,7.03
2023-03-06T15:39:33.461Z,7.22
2023-03-06T15:42:01.708Z,6.43
2023-03-06T15:44:31.749Z,7.28
2023-03-06T15:47:08.448Z,8.77
2023-03-06T15:49:38.320Z,7.65
2023-03-06T15:52:08.552Z,6.75
2023-03-06T15:54:35.799Z,6.28
2023-03-06T15:57:06.171Z,8.07
2023-03-06T15:59:41.526Z,6.38
2023-03-06T16:02:17.150Z,7.25
2023-03-06T16:04:44.317Z,6.20
2023-03-06T16:07:11.634Z,6.32
2023-03-06T16:09:38.426Z,8.40
2023-03-06T16:12:05.930Z,9.57
2023-03-06T16:14:32.686Z,6.22
2023-03-06T16:16:59.937Z,6.95
2023-03-06T16:19:27.789Z,8.60
2023-03-06T16:21:55.848Z,8.30
2023-03-06T16:24:24.076Z,5.68
2023-03-06T16:26:52.586Z,6.68
2023-03-06T16:29:25.084Z,7.63
2023-03-06T16:31:55.262Z,7.47
2023-03-06T16:34:22.131Z,6.40
2023-03-06T16:36:49.575Z,6.68
2023-03-06T16:39:18.864Z,6.68
2023-03-06T16:41:49.463Z,8.57
2023-03-06T16:44:16.690Z,9.00
2023-03-06T16:46:46.976Z,7.43
2023-03-06T16:49:16.925Z,8.32
2023-03-06T16:51:44.507Z,8.57
2023-03-06T16:54:12.128Z,8.15
2023-03-06T16:56:38.799Z,8.43
2023-03-06T16:59:05.502Z,14.50
2023-03-06T17:01:32.285Z,17.52
2023-03-06T17:03:59.063Z,12.23
2023-03-06T17:06:25.817Z,25.83
2023-03-06T17:08:52.629Z,27.08
2023-03-06T17:11:22.006Z,18.02
2023-03-06T17:13:48.913Z,22.02
2023-03-06T17:16:16.721Z,16.70
2023-03-06T17:18:45.531Z,19.30
2023-03-06T17:21:15.753Z,21.00
2023-03-06T17:23:42.913Z,21.55
2023-03-06T17:26:12.866Z,16.55
2023-03-06T17:28:40.286Z,17.25
2023-03-06T17:31:13.166Z,18.70
2023-03-06T17:33:40.092Z,20.42
2023-03-06T17:36:07.431Z,17.08
2023-03-06T17:38:34.652Z,16.67
2023-03-06T17:41:06.187Z,23.63
2023-03-06T17:43:33.752Z,27.95
2023-03-06T17:46:08.758Z,22.80
2023-03-06T17:48:36.271Z,23.63
2023-03-06T17:51:03.657Z,27.77
2023-03-06T17:53:30.357Z,34.28
2023-03-06T17:55:59.993Z,28.73
2023-03-06T17:58:27.220Z,30.85
2023-03-06T18:00:53.844Z,32.90
2023-03-06T18:03:21.101Z,29.55
2023-03-06T18:05:47.882Z,58.78
2023-03-06T18:08:14.564Z,42.92
2023-03-06T18:10:43.494Z,33.30
2023-03-06T18:13:10.993Z,25.50
2023-03-06T18:15:41.630Z,21.63
2023-03-06T18:18:08.950Z,23.52
2023-03-06T18:20:41.051Z,18.25
2023-03-06T18:23:07.851Z,18.45
2023-03-06T18:25:38.108Z,15.68
2023-03-06T18:28:05.993Z,16.25
2023-03-06T18:30:36.316Z,19.58
2023-03-06T18:33:03.052Z,19.60
2023-03-06T18:35:29.707Z,18.13
2023-03-06T18:37:56.353Z,15.90
2023-03-06T18:40:24.850Z,24.70
2023-03-06T18:42:54.847Z,22.27
2023-03-06T18:45:21.619Z,21.38
2023-03-06T18:47:48.226Z,22.95
2023-03-06T18:50:16.516Z,21.65
2023-03-06T18:52:44.132Z,25.30
2023-03-06T18:55:11.111Z,29.58
2023-03-06T18:57:38.101Z,37.90
2023-03-06T19:00:06.739Z,41.70
2023-03-06T19:02:33.483Z,30.27
2023-03-06T19:05:00.124Z,31.83
2023-03-06T19:07:26.858Z,35.35
2023-03-06T19:09:53.542Z,30.85
2023-03-06T19:12:20.220Z,25.50
2023-03-06T19:14:48.447Z,29.55
2023-03-06T19:17:15.141Z,22.52
2023-03-06T19:19:41.713Z,22.65
2023-03-06T19:22:08.429Z,24.52
2023-03-06T19:24:35.220Z,22.63
2023-03-06T19:27:01.877Z,19.42
2023-03-06T19:29:28.747Z,16.65
2023-03-06T19:31:57.338Z,18.05
2023-03-06T19:34:24.155Z,17.77
2023-03-06T19:36:51.041Z,14.65
2023-03-06T19:39:17.652Z,14.30
2023-03-06T19:41:46.420Z,10.15
2023-03-06T19:44:14.608Z,13.32
2023-03-06T19:46:41.435Z,12.07
2023-03-06T19:49:12.139Z,14.73
2023-03-06T19:51:39.052Z,16.17
2023-03-06T19:54:05.845Z,15.40
2023-03-06T19:56:33.710Z,13.55
2023-03-06T19:59:00.561Z,14.32
2023-03-06T20:01:28.249Z,12.15
2023-03-06T20:03:59.442Z,10.90
2023-03-06T20:06:29.061Z,10.23
2023-03-06T20:08:56.120Z,11.63
2023-03-06T20:11:25.764Z,11.13
2023-03-06T20:13:54.277Z,19.75
2023-03-06T20:16:21.155Z,26.63
2023-03-06T20:18:47.811Z,21.83
2023-03-06T20:21:14.769Z,20.55
2023-03-06T20:23:41.965Z,14.02
2023-03-06T20:26:11.887Z,11.25
2023-03-06T20:28:39.948Z,9.60
2023-03-06T20:31:18.236Z,7.18
2023-03-06T20:33:48.057Z,8.98
2023-03-06T20:36:17.710Z,45.13
2023-03-06T20:38:45.450Z,36.35
2023-03-06T20:41:20.947Z,32.72
2023-03-06T20:43:48.283Z,32.08
2023-03-06T20:46:15.569Z,27.67
2023-03-06T20:48:43.368Z,27.10
2023-03-06T20:51:24.480Z,27.88
2023-03-06T20:53:55.815Z,26.65
2023-03-06T20:56:25.883Z,24.60
2023-03-06T20:58:53.221Z,24.73
2023-03-06T21:01:31.407Z,18.60
2023-03-06T21:03:59.796Z,16.40
2023-03-06T21:06:28.533Z,21.02
2023-03-06T21:08:57.035Z,26.75
2023-03-06T21:11:24.482Z,22.00
2023-03-06T21:13:52.715Z,23.42
2023-03-06T21:16:21.949Z,20.60
2023-03-06T21:18:48.577Z,21.95
2023-03-06T21:21:18.486Z,20.63
2023-03-06T21:23:46.829Z,18.77
2023-03-06T21:26:19.437Z,20.45
2023-03-06T21:28:46.559Z,18.05
2023-03-06T21:31:15.204Z,19.33
2023-03-06T21:33:42.118Z,31.77
2023-03-06T21:36:09.673Z,31.10
2023-03-06T21:38:36.815Z,25.60
2023-03-06T21:41:28.960Z,19.13
2023-03-06T21:43:57.317Z,26.33
2023-03-06T21:46:24.498Z,20.73
2023-03-06T21:48:51.608Z,21.27
2023-03-06T21:51:20.307Z,23.95
2023-03-06T21:53:48.576Z,19.63
2023-03-06T21:56:17.763Z,21.08
2023-03-06T21:58:45.553Z,21.80
2023-03-06T22:01:31.500Z,19.40
2023-03-06T22:04:00.604Z,20.83
2023-03-06T22:06:28.910Z,20.92
2023-03-06T22:08:56.480Z,21.42
2023-03-06T22:11:24.943Z,20.75
2023-03-06T22:13:53.456Z,19.15
2023-03-06T22:16:20.903Z,17.00
2023-03-06T22:18:50.024Z,15.57
2023-03-06T22:21:19.198Z,13.90
2023-03-06T22:23:53.020Z,14.00
2023-03-06T22:26:20.611Z,14.05
2023-03-06T22:28:47.323Z,16.58
2023-03-06T22:31:17.197Z,14.50
2023-03-06T22:33:44.580Z,13.43
2023-03-06T22:36:14.390Z,14.85
2023-03-06T22:38:44.033Z,14.30
2023-03-06T22:41:12.281Z,12.05
2023-03-06T22:43:39.081Z,13.98
2023-03-06T22:46:25.716Z,13.45
2023-03-06T22:48:52.560Z,13.55
2023-03-06T22:51:20.967Z,9.18
2023-03-06T22:53:48.721Z,9.45
2023-03-06T22:56:17.928Z,11.63
2023-03-06T22:58:45.029Z,26.10
2023-03-06T23:01:20.450Z,27.33
2023-03-06T23:03:49.817Z,28.15
2023-03-06T23:06:26.003Z,24.73
2023-03-06T23:09:08.131Z,17.08
2023-03-06T23:11:35.336Z,20.23
2023-03-06T23:14:02.371Z,16.50
2023-03-06T23:16:29.375Z,16.35
2023-03-06T23:18:56.217Z,18.08
2023-03-06T23:21:24.328Z,20.08
2023-03-06T23:23:52.916Z,22.35
2023-03-06T23:26:23.543Z,24.25
2023-03-06T23:28:50.246Z,16.88
2023-03-06T23:31:20.175Z,14.05
2023-03-06T23:33:47.942Z,12.80
2023-03-06T23:36:17.079Z,18.05
2023-03-06T23:38:44.774Z,18.85
2023-03-06T23:41:14.786Z,22.42
2023-03-06T23:43:41.788Z,20.42
2023-03-06T23:46:09.030Z,20.08
2023-03-06T23:48:37.431Z,15.68
2023-03-06T23:51:13.706Z,19.20
2023-03-06T23:53:40.768Z,27.38
2023-03-06T23:56:07.986Z,27.30
2023-03-06T23:58:35.249Z,15.15
